KFHR/FHR METAR and TAF weather

Enter ICAO airport designator
Station Type Date Time Source
KFHR METAR 2021/05/11 22:53 UTC NOAA

KFHR 112253Z AUTO 14004KT 10SM CLR 18/08 A3019 RMK AO2 SLP222 T01830083 TSNO


Station Type Date Time Source
KFHR Decoded METAR 2021/05/11 22:53 UTC NOAA

FRIDAY HARBOR AIRPORT, WA, United States (KFHR) 48-31N 123-02W 32M
May 11, 2021 - 06:53 PM EDT / 2021.05.11 2253 UTC
Wind: from the SE (140 degrees) at 5 MPH (4 KT):0
Visibility: 10 mile(s):0
Sky conditions: clear
Temperature: 64.9 F (18.3 C)
Dew Point: 46.9 F (8.3 C)
Relative Humidity: 52%
Pressure (altimeter): 30.19 in. Hg (1022 hPa)
ob: KFHR 112253Z AUTO 14004KT 10SM CLR 18/08 A3019 RMK AO2 SLP222 T01830083 TSNO
cycle: 23

Station Type Date Time Source
KFHR TAF UTC NOAA

Error!

Example: see airport list